sensor_id;sensor_type;location;lat;lon;timestamp;temperature;humidity
19000;DHT22;9633;50.980;13.850;2023-03-25T00:01:27;11.00;99.90
19000;DHT22;9633;50.980;13.850;2023-03-25T00:03:00;11.10;99.90
19000;DHT22;9633;50.980;13.850;2023-03-25T00:04:36;11.00;99.90
19000;DHT22;9633;50.980;13.850;2023-03-25T00:06:12;11.00;99.90
19000;DHT22;9633;50.980;13.850;2023-03-25T00:07:47;10.90;99.90
19000;DHT22;9633;50.980;13.850;2023-03-25T00:09:20;10.90;99.90
19000;DHT22;9633;50.980;13.850;2023-03-25T00:10:55;10.90;99.90
19000;DHT22;9633;50.980;13.850;2023-03-25T00:12:28;10.80;99.90
19000;DHT22;9633;50.980;13.850;2023-03-25T00:14:02;10.80;99.90
19000;DHT22;9633;50.980;13.850;2023-03-25T00:15:35;10.80;99.90
19000;DHT22;9633;50.980;13.850;2023-03-25T00:17:08;10.80;99.90
19000;DHT22;9633;50.980;13.850;2023-03-25T00:18:44;10.80;99.90
19000;DHT22;9633;50.980;13.850;2023-03-25T00:20:20;10.80;99.90
19000;DHT22;9633;50.980;13.850;2023-03-25T00:21:53;10.80;99.90
19000;DHT22;9633;50.980;13.850;2023-03-25T00:23:26;11.00;99.90
19000;DHT22;9633;50.980;13.850;2023-03-25T00:24:59;10.70;99.90
19000;DHT22;9633;50.980;13.850;2023-03-25T00:26:32;10.70;99.90
19000;DHT22;9633;50.980;13.850;2023-03-25T00:28:05;10.60;99.90
19000;DHT22;9633;50.980;13.850;2023-03-25T00:29:39;10.60;99.90
19000;DHT22;9633;50.980;13.850;2023-03-25T00:31:13;10.50;99.90
19000;DHT22;9633;50.980;13.850;2023-03-25T00:32:47;10.40;99.90
19000;DHT22;9633;50.980;13.850;2023-03-25T00:34:21;10.40;99.90
19000;DHT22;9633;50.980;13.850;2023-03-25T00:35:56;10.40;99.90
19000;DHT22;9633;50.980;13.850;2023-03-25T00:37:31;10.30;99.90
19000;DHT22;9633;50.980;13.850;2023-03-25T00:39:04;10.30;99.90
19000;DHT22;9633;50.980;13.850;2023-03-25T00:40:37;10.20;99.90
19000;DHT22;9633;50.980;13.850;2023-03-25T00:42:10;10.20;99.90
19000;DHT22;9633;50.980;13.850;2023-03-25T00:43:44;10.10;99.90
19000;DHT22;9633;50.980;13.850;2023-03-25T00:45:17;10.10;99.90
19000;DHT22;9633;50.980;13.850;2023-03-25T00:46:49;10.10;99.90
19000;DHT22;9633;50.980;13.850;2023-03-25T00:48:23;10.30;99.90
19000;DHT22;9633;50.980;13.850;2023-03-25T00:49:55;10.40;99.90
19000;DHT22;9633;50.980;13.850;2023-03-25T00:51:30;10.40;99.90
19000;DHT22;9633;50.980;13.850;2023-03-25T00:53:04;10.30;99.90
19000;DHT22;9633;50.980;13.850;2023-03-25T00:54:39;10.40;99.90
19000;DHT22;9633;50.980;13.850;2023-03-25T00:56:12;10.40;99.90
19000;DHT22;9633;50.980;13.850;2023-03-25T00:57:45;10.40;99.90
19000;DHT22;9633;50.980;13.850;2023-03-25T00:59:19;10.50;99.90
19000;DHT22;9633;50.980;13.850;2023-03-25T01:00:52;10.60;99.90
19000;DHT22;9633;50.980;13.850;2023-03-25T01:02:27;10.60;99.90
19000;DHT22;9633;50.980;13.850;2023-03-25T01:04:01;10.80;99.90
19000;DHT22;9633;50.980;13.850;2023-03-25T01:05:36;10.70;99.90
19000;DHT22;9633;50.980;13.850;2023-03-25T01:07:13;10.70;99.90
19000;DHT22;9633;50.980;13.850;2023-03-25T01:08:47;10.60;99.90
19000;DHT22;9633;50.980;13.850;2023-03-25T01:10:20;10.60;99.90
19000;DHT22;9633;50.980;13.850;2023-03-25T01:11:53;10.50;99.90
19000;DHT22;9633;50.980;13.850;2023-03-25T01:13:26;10.50;99.90
19000;DHT22;9633;50.980;13.850;2023-03-25T01:14:59;10.40;99.90
19000;DHT22;9633;50.980;13.850;2023-03-25T01:16:33;10.30;99.90
19000;DHT22;9633;50.980;13.850;2023-03-25T01:18:06;10.20;99.90
19000;DHT22;9633;50.980;13.850;2023-03-25T01:19:39;10.00;99.90
19000;DHT22;9633;50.980;13.850;2023-03-25T01:21:12;10.00;99.90
19000;DHT22;9633;50.980;13.850;2023-03-25T01:22:47;10.10;99.90
19000;DHT22;9633;50.980;13.850;2023-03-25T01:24:21;10.10;99.90
19000;DHT22;9633;50.980;13.850;2023-03-25T01:25:54;10.20;99.90
19000;DHT22;9633;50.980;13.850;2023-03-25T01:27:27;10.30;99.90
19000;DHT22;9633;50.980;13.850;2023-03-25T01:29:01;10.40;99.90
19000;DHT22;9633;50.980;13.850;2023-03-25T01:30:34;10.40;99.90
19000;DHT22;9633;50.980;13.850;2023-03-25T01:32:07;10.20;99.90
19000;DHT22;9633;50.980;13.850;2023-03-25T01:33:41;10.10;99.90
19000;DHT22;9633;50.980;13.850;2023-03-25T01:35:14;10.00;99.90
19000;DHT22;9633;50.980;13.850;2023-03-25T01:36:47;9.90;99.90
19000;DHT22;9633;50.980;13.850;2023-03-25T01:38:22;10.20;99.90
19000;DHT22;9633;50.980;13.850;2023-03-25T01:39:54;10.40;99.90
19000;DHT22;9633;50.980;13.850;2023-03-25T01:41:28;10.40;99.90
19000;DHT22;9633;50.980;13.850;2023-03-25T01:43:19;10.40;99.90
19000;DHT22;9633;50.980;13.850;2023-03-25T01:45:15;10.40;99.90
19000;DHT22;9633;50.980;13.850;2023-03-25T01:46:51;10.40;99.90
19000;DHT22;9633;50.980;13.850;2023-03-25T01:48:27;10.50;99.90
19000;DHT22;9633;50.980;13.850;2023-03-25T01:50:04;10.50;99.90
19000;DHT22;9633;50.980;13.850;2023-03-25T01:51:41;10.40;99.90
19000;DHT22;9633;50.980;13.850;2023-03-25T01:53:16;10.60;99.90
19000;DHT22;9633;50.980;13.850;2023-03-25T01:54:53;10.60;99.90
19000;DHT22;9633;50.980;13.850;2023-03-25T01:56:30;10.70;99.90
19000;DHT22;9633;50.980;13.850;2023-03-25T01:58:09;10.60;99.90
19000;DHT22;9633;50.980;13.850;2023-03-25T01:59:43;10.60;99.90
19000;DHT22;9633;50.980;13.850;2023-03-25T02:01:18;10.60;99.90
19000;DHT22;9633;50.980;13.850;2023-03-25T02:02:55;10.60;99.90
19000;DHT22;9633;50.980;13.850;2023-03-25T02:04:34;10.50;99.90
19000;DHT22;9633;50.980;13.850;2023-03-25T02:06:15;10.50;99.90
19000;DHT22;9633;50.980;13.850;2023-03-25T02:07:51;10.50;99.90
19000;DHT22;9633;50.980;13.850;2023-03-25T02:09:25;10.50;99.90
19000;DHT22;9633;50.980;13.850;2023-03-25T02:11:00;10.70;99.90
19000;DHT22;9633;50.980;13.850;2023-03-25T02:12:34;10.70;99.90
19000;DHT22;9633;50.980;13.850;2023-03-25T02:14:07;10.80;99.90
19000;DHT22;9633;50.980;13.850;2023-03-25T02:15:55;10.80;99.90
19000;DHT22;9633;50.980;13.850;2023-03-25T02:17:39;10.90;99.90
19000;DHT22;9633;50.980;13.850;2023-03-25T02:19:31;10.90;99.90
19000;DHT22;9633;50.980;13.850;2023-03-25T02:21:39;11.00;99.90
19000;DHT22;9633;50.980;13.850;2023-03-25T02:23:44;11.00;99.90
19000;DHT22;9633;50.980;13.850;2023-03-25T02:25:59;11.00;99.90
19000;DHT22;9633;50.980;13.850;2023-03-25T02:27:46;10.90;99.90
19000;DHT22;9633;50.980;13.850;2023-03-25T02:29:33;10.90;99.90
19000;DHT22;9633;50.980;13.850;2023-03-25T02:31:21;11.00;99.90
19000;DHT22;9633;50.980;13.850;2023-03-25T02:33:24;10.90;99.90
19000;DHT22;9633;50.980;13.850;2023-03-25T02:35:14;10.90;99.90
19000;DHT22;9633;50.980;13.850;2023-03-25T02:37:18;10.80;99.90
19000;DHT22;9633;50.980;13.850;2023-03-25T02:39:00;10.70;99.90
19000;DHT22;9633;50.980;13.850;2023-03-25T02:40:37;10.70;99.90
19000;DHT22;9633;50.980;13.850;2023-03-25T02:42:15;10.60;99.90
19000;DHT22;9633;50.980;13.850;2023-03-25T02:43:54;10.50;99.90
19000;DHT22;9633;50.980;13.850;2023-03-25T02:45:31;10.50;99.90
19000;DHT22;9633;50.980;13.850;2023-03-25T02:47:08;10.60;99.90
19000;DHT22;9633;50.980;13.850;2023-03-25T02:48:49;10.60;99.90
19000;DHT22;9633;50.980;13.850;2023-03-25T02:50:28;10.50;99.90
19000;DHT22;9633;50.980;13.850;2023-03-25T02:52:07;10.50;99.90
19000;DHT22;9633;50.980;13.850;2023-03-25T02:53:45;10.50;99.90
19000;DHT22;9633;50.980;13.850;2023-03-25T02:55:22;10.50;99.90
19000;DHT22;9633;50.980;13.850;2023-03-25T02:56:59;10.60;99.90
19000;DHT22;9633;50.980;13.850;2023-03-25T02:58:32;10.50;99.90
19000;DHT22;9633;50.980;13.850;2023-03-25T03:00:08;10.50;99.90
19000;DHT22;9633;50.980;13.850;2023-03-25T03:01:46;10.60;99.90
19000;DHT22;9633;50.980;13.850;2023-03-25T03:03:24;10.60;99.90
19000;DHT22;9633;50.980;13.850;2023-03-25T03:05:01;10.60;99.90
19000;DHT22;9633;50.980;13.850;2023-03-25T03:06:37;10.50;99.90
19000;DHT22;9633;50.980;13.850;2023-03-25T03:08:22;10.40;99.90
19000;DHT22;9633;50.980;13.850;2023-03-25T03:10:05;10.20;99.90
19000;DHT22;9633;50.980;13.850;2023-03-25T03:11:54;10.10;99.90
19000;DHT22;9633;50.980;13.850;2023-03-25T03:13:39;10.10;99.90
19000;DHT22;9633;50.980;13.850;2023-03-25T03:15:23;9.90;99.90
19000;DHT22;9633;50.980;13.850;2023-03-25T03:17:05;9.70;99.90
19000;DHT22;9633;50.980;13.850;2023-03-25T03:18:46;9.60;99.90
19000;DHT22;9633;50.980;13.850;2023-03-25T03:20:29;9.50;99.90
19000;DHT22;9633;50.980;13.850;2023-03-25T03:22:16;9.30;99.90
19000;DHT22;9633;50.980;13.850;2023-03-25T03:23:56;9.30;99.90
19000;DHT22;9633;50.980;13.850;2023-03-25T03:25:33;9.10;99.90
19000;DHT22;9633;50.980;13.850;2023-03-25T03:27:11;9.00;99.90
19000;DHT22;9633;50.980;13.850;2023-03-25T03:28:47;8.80;99.90
19000;DHT22;9633;50.980;13.850;2023-03-25T03:30:24;8.70;99.90
19000;DHT22;9633;50.980;13.850;2023-03-25T03:32:05;8.70;99.90
19000;DHT22;9633;50.980;13.850;2023-03-25T03:33:44;8.80;99.90
19000;DHT22;9633;50.980;13.850;2023-03-25T03:35:23;8.80;99.90
19000;DHT22;9633;50.980;13.850;2023-03-25T03:36:59;8.70;99.90
19000;DHT22;9633;50.980;13.850;2023-03-25T03:38:37;8.70;99.90
19000;DHT22;9633;50.980;13.850;2023-03-25T03:40:15;8.80;99.90
19000;DHT22;9633;50.980;13.850;2023-03-25T03:41:52;8.70;99.90
19000;DHT22;9633;50.980;13.850;2023-03-25T03:43:32;8.80;99.90
19000;DHT22;9633;50.980;13.850;2023-03-25T03:45:11;8.80;99.90
19000;DHT22;9633;50.980;13.850;2023-03-25T03:46:49;8.70;99.90
19000;DHT22;9633;50.980;13.850;2023-03-25T03:48:28;8.70;99.90
19000;DHT22;9633;50.980;13.850;2023-03-25T03:50:05;8.70;99.90
19000;DHT22;9633;50.980;13.850;2023-03-25T03:51:42;8.80;99.90
19000;DHT22;9633;50.980;13.850;2023-03-25T03:53:20;8.90;99.90
19000;DHT22;9633;50.980;13.850;2023-03-25T03:54:57;9.10;99.90
19000;DHT22;9633;50.980;13.850;2023-03-25T03:56:36;9.20;99.90
19000;DHT22;9633;50.980;13.850;2023-03-25T03:58:16;9.30;99.90
19000;DHT22;9633;50.980;13.850;2023-03-25T03:59:57;9.40;99.90
19000;DHT22;9633;50.980;13.850;2023-03-25T04:01:45;9.40;99.90
19000;DHT22;9633;50.980;13.850;2023-03-25T04:03:21;9.40;99.90
19000;DHT22;9633;50.980;13.850;2023-03-25T04:04:59;9.30;99.90
19000;DHT22;9633;50.980;13.850;2023-03-25T04:06:36;9.30;99.90
19000;DHT22;9633;50.980;13.850;2023-03-25T04:08:19;9.40;99.90
19000;DHT22;9633;50.980;13.850;2023-03-25T04:09:59;9.40;99.90
19000;DHT22;9633;50.980;13.850;2023-03-25T04:11:38;9.40;99.90
19000;DHT22;9633;50.980;13.850;2023-03-25T04:13:13;9.40;99.90
19000;DHT22;9633;50.980;13.850;2023-03-25T04:14:47;9.40;99.90
19000;DHT22;9633;50.980;13.850;2023-03-25T04:16:22;9.30;99.90
19000;DHT22;9633;50.980;13.850;2023-03-25T04:17:55;9.20;99.90
19000;DHT22;9633;50.980;13.850;2023-03-25T04:19:28;9.10;99.90
19000;DHT22;9633;50.980;13.850;2023-03-25T04:21:05;9.10;99.90
19000;DHT22;9633;50.980;13.850;2023-03-25T04:22:38;9.10;99.90
19000;DHT22;9633;50.980;13.850;2023-03-25T04:24:17;9.00;99.90
19000;DHT22;9633;50.980;13.850;2023-03-25T04:25:50;9.00;99.90
19000;DHT22;9633;50.980;13.850;2023-03-25T04:27:24;9.10;99.90
19000;DHT22;9633;50.980;13.850;2023-03-25T04:29:01;9.20;99.90
19000;DHT22;9633;50.980;13.850;2023-03-25T04:30:34;9.60;99.90
19000;DHT22;9633;50.980;13.850;2023-03-25T04:32:10;9.70;99.90
19000;DHT22;9633;50.980;13.850;2023-03-25T04:33:44;9.90;99.90
19000;DHT22;9633;50.980;13.850;2023-03-25T04:35:19;10.00;99.90
19000;DHT22;9633;50.980;13.850;2023-03-25T04:36:53;9.90;99.90
19000;DHT22;9633;50.980;13.850;2023-03-25T04:38:29;9.90;99.90
19000;DHT22;9633;50.980;13.850;2023-03-25T04:40:02;9.80;99.90
19000;DHT22;9633;50.980;13.850;2023-03-25T04:41:40;9.80;99.90
19000;DHT22;9633;50.980;13.850;2023-03-25T04:43:12;9.70;99.90
19000;DHT22;9633;50.980;13.850;2023-03-25T04:44:45;9.70;99.90
19000;DHT22;9633;50.980;13.850;2023-03-25T04:46:18;9.80;99.90
19000;DHT22;9633;50.980;13.850;2023-03-25T04:47:53;9.90;99.90
19000;DHT22;9633;50.980;13.850;2023-03-25T04:49:26;10.00;99.90
19000;DHT22;9633;50.980;13.850;2023-03-25T04:51:00;10.20;99.90
19000;DHT22;9633;50.980;13.850;2023-03-25T04:52:34;10.30;99.90
19000;DHT22;9633;50.980;13.850;2023-03-25T04:54:08;10.50;99.90
19000;DHT22;9633;50.980;13.850;2023-03-25T04:55:41;10.50;99.90
19000;DHT22;9633;50.980;13.850;2023-03-25T04:57:19;10.50;99.90
19000;DHT22;9633;50.980;13.850;2023-03-25T04:58:52;10.60;99.90
19000;DHT22;9633;50.980;13.850;2023-03-25T05:00:25;10.70;99.90
19000;DHT22;9633;50.980;13.850;2023-03-25T05:01:58;10.70;99.90
19000;DHT22;9633;50.980;13.850;2023-03-25T05:03:34;10.60;99.90
19000;DHT22;9633;50.980;13.850;2023-03-25T05:05:10;10.60;99.90
19000;DHT22;9633;50.980;13.850;2023-03-25T05:06:49;10.70;99.90
19000;DHT22;9633;50.980;13.850;2023-03-25T05:08:23;10.60;99.90
19000;DHT22;9633;50.980;13.850;2023-03-25T05:09:56;10.70;99.90
19000;DHT22;9633;50.980;13.850;2023-03-25T05:11:30;10.70;99.90
19000;DHT22;9633;50.980;13.850;2023-03-25T05:13:05;10.60;99.90
19000;DHT22;9633;50.980;13.850;2023-03-25T05:14:39;10.60;99.90
19000;DHT22;9633;50.980;13.850;2023-03-25T05:16:12;10.50;99.90
19000;DHT22;9633;50.980;13.850;2023-03-25T05:17:44;10.60;99.90
19000;DHT22;9633;50.980;13.850;2023-03-25T05:19:19;10.60;99.90
19000;DHT22;9633;50.980;13.850;2023-03-25T05:20:52;10.60;99.90
19000;DHT22;9633;50.980;13.850;2023-03-25T05:22:26;10.60;99.90
19000;DHT22;9633;50.980;13.850;2023-03-25T05:23:59;10.60;99.90
19000;DHT22;9633;50.980;13.850;2023-03-25T05:25:33;10.70;99.90
19000;DHT22;9633;50.980;13.850;2023-03-25T05:27:08;10.70;99.90
19000;DHT22;9633;50.980;13.850;2023-03-25T05:28:41;10.70;99.90
19000;DHT22;9633;50.980;13.850;2023-03-25T05:30:14;10.70;99.90
19000;DHT22;9633;50.980;13.850;2023-03-25T05:31:46;10.60;99.90
19000;DHT22;9633;50.980;13.850;2023-03-25T05:33:20;10.60;99.90
19000;DHT22;9633;50.980;13.850;2023-03-25T05:34:55;10.60;99.90
19000;DHT22;9633;50.980;13.850;2023-03-25T05:36:28;10.70;99.90
19000;DHT22;9633;50.980;13.850;2023-03-25T05:38:02;10.70;99.90
19000;DHT22;9633;50.980;13.850;2023-03-25T05:39:35;10.70;99.90
19000;DHT22;9633;50.980;13.850;2023-03-25T05:41:10;10.70;99.90
19000;DHT22;9633;50.980;13.850;2023-03-25T05:42:47;10.80;99.90
19000;DHT22;9633;50.980;13.850;2023-03-25T05:44:21;10.80;99.90
19000;DHT22;9633;50.980;13.850;2023-03-25T05:45:54;10.80;99.90
19000;DHT22;9633;50.980;13.850;2023-03-25T05:47:27;10.70;99.90
19000;DHT22;9633;50.980;13.850;2023-03-25T05:49:01;10.70;99.90
19000;DHT22;9633;50.980;13.850;2023-03-25T05:50:36;10.70;99.90
19000;DHT22;9633;50.980;13.850;2023-03-25T05:52:13;10.70;99.90
19000;DHT22;9633;50.980;13.850;2023-03-25T05:53:48;10.70;99.90
19000;DHT22;9633;50.980;13.850;2023-03-25T05:55:22;10.60;99.90
19000;DHT22;9633;50.980;13.850;2023-03-25T05:56:56;10.70;99.90
19000;DHT22;9633;50.980;13.850;2023-03-25T05:58:29;10.60;99.90
19000;DHT22;9633;50.980;13.850;2023-03-25T06:00:04;10.60;99.90
19000;DHT22;9633;50.980;13.850;2023-03-25T06:01:42;10.50;99.90
19000;DHT22;9633;50.980;13.850;2023-03-25T06:03:17;10.40;99.90
19000;DHT22;9633;50.980;13.850;2023-03-25T06:04:51;10.30;99.90
19000;DHT22;9633;50.980;13.850;2023-03-25T06:06:26;10.30;99.90
19000;DHT22;9633;50.980;13.850;2023-03-25T06:08:00;10.30;99.90
19000;DHT22;9633;50.980;13.850;2023-03-25T06:09:33;10.30;99.90
19000;DHT22;9633;50.980;13.850;2023-03-25T06:11:06;10.40;99.90
19000;DHT22;9633;50.980;13.850;2023-03-25T06:12:40;10.40;99.90
19000;DHT22;9633;50.980;13.850;2023-03-25T06:14:13;10.40;99.90
19000;DHT22;9633;50.980;13.850;2023-03-25T06:15:46;10.40;99.90
19000;DHT22;9633;50.980;13.850;2023-03-25T06:17:21;10.40;99.90
19000;DHT22;9633;50.980;13.850;2023-03-25T06:18:54;10.40;99.90
19000;DHT22;9633;50.980;13.850;2023-03-25T06:20:30;10.40;99.90
19000;DHT22;9633;50.980;13.850;2023-03-25T06:22:06;10.30;99.90
19000;DHT22;9633;50.980;13.850;2023-03-25T06:23:40;10.30;99.90
19000;DHT22;9633;50.980;13.850;2023-03-25T06:25:15;10.40;99.90
19000;DHT22;9633;50.980;13.850;2023-03-25T06:26:49;10.40;99.90
19000;DHT22;9633;50.980;13.850;2023-03-25T06:28:23;10.50;99.90
19000;DHT22;9633;50.980;13.850;2023-03-25T06:29:56;10.70;99.90
19000;DHT22;9633;50.980;13.850;2023-03-25T06:31:29;11.00;99.90
19000;DHT22;9633;50.980;13.850;2023-03-25T06:33:05;11.00;99.90
19000;DHT22;9633;50.980;13.850;2023-03-25T06:34:38;11.00;99.90
19000;DHT22;9633;50.980;13.850;2023-03-25T06:36:15;10.80;99.90
19000;DHT22;9633;50.980;13.850;2023-03-25T06:37:50;10.90;99.90
19000;DHT22;9633;50.980;13.850;2023-03-25T06:39:32;10.70;99.90
19000;DHT22;9633;50.980;13.850;2023-03-25T06:41:09;10.60;99.90
19000;DHT22;9633;50.980;13.850;2023-03-25T06:42:42;10.50;99.90
19000;DHT22;9633;50.980;13.850;2023-03-25T06:44:38;10.60;99.90
19000;DHT22;9633;50.980;13.850;2023-03-25T06:46:34;10.70;99.90
19000;DHT22;9633;50.980;13.850;2023-03-25T06:48:26;10.80;99.90
19000;DHT22;9633;50.980;13.850;2023-03-25T06:49:59;11.00;99.90
19000;DHT22;9633;50.980;13.850;2023-03-25T06:51:32;11.20;99.90
19000;DHT22;9633;50.980;13.850;2023-03-25T06:53:07;11.80;99.90
19000;DHT22;9633;50.980;13.850;2023-03-25T06:54:40;12.00;99.90
19000;DHT22;9633;50.980;13.850;2023-03-25T06:56:13;12.80;99.90
19000;DHT22;9633;50.980;13.850;2023-03-25T06:57:49;13.90;99.90
19000;DHT22;9633;50.980;13.850;2023-03-25T06:59:22;14.20;99.90
19000;DHT22;9633;50.980;13.850;2023-03-25T07:00:55;14.50;99.90
19000;DHT22;9633;50.980;13.850;2023-03-25T07:02:28;14.80;99.90
19000;DHT22;9633;50.980;13.850;2023-03-25T07:04:01;14.80;99.90
19000;DHT22;9633;50.980;13.850;2023-03-25T07:05:35;14.20;99.90
19000;DHT22;9633;50.980;13.850;2023-03-25T07:07:08;14.30;99.90
19000;DHT22;9633;50.980;13.850;2023-03-25T07:08:43;14.10;99.90
19000;DHT22;9633;50.980;13.850;2023-03-25T07:10:16;14.50;99.90
19000;DHT22;9633;50.980;13.850;2023-03-25T07:11:49;14.80;99.90
19000;DHT22;9633;50.980;13.850;2023-03-25T07:13:22;14.60;99.90
19000;DHT22;9633;50.980;13.850;2023-03-25T07:14:56;15.10;99.90
19000;DHT22;9633;50.980;13.850;2023-03-25T07:16:29;15.20;99.90
19000;DHT22;9633;50.980;13.850;2023-03-25T07:18:03;14.80;99.90
19000;DHT22;9633;50.980;13.850;2023-03-25T07:19:36;14.50;99.90
19000;DHT22;9633;50.980;13.850;2023-03-25T07:21:09;14.70;99.90
19000;DHT22;9633;50.980;13.850;2023-03-25T07:22:42;14.60;99.90
19000;DHT22;9633;50.980;13.850;2023-03-25T07:24:16;14.20;99.90
19000;DHT22;9633;50.980;13.850;2023-03-25T07:25:50;14.50;99.90
19000;DHT22;9633;50.980;13.850;2023-03-25T07:27:24;14.50;99.90
19000;DHT22;9633;50.980;13.850;2023-03-25T07:29:07;14.40;99.90
19000;DHT22;9633;50.980;13.850;2023-03-25T07:30:40;14.60;99.90
19000;DHT22;9633;50.980;13.850;2023-03-25T07:32:13;14.90;99.90
19000;DHT22;9633;50.980;13.850;2023-03-25T07:33:46;15.10;99.90
19000;DHT22;9633;50.980;13.850;2023-03-25T07:35:19;15.00;99.90
19000;DHT22;9633;50.980;13.850;2023-03-25T07:36:53;14.70;99.90
19000;DHT22;9633;50.980;13.850;2023-03-25T07:38:26;13.90;99.90
19000;DHT22;9633;50.980;13.850;2023-03-25T07:40:01;14.40;99.90
19000;DHT22;9633;50.980;13.850;2023-03-25T07:41:34;14.40;99.90
19000;DHT22;9633;50.980;13.850;2023-03-25T07:43:27;14.30;99.90
19000;DHT22;9633;50.980;13.850;2023-03-25T07:45:09;13.70;99.90
19000;DHT22;9633;50.980;13.850;2023-03-25T07:46:45;13.30;99.90
19000;DHT22;9633;50.980;13.850;2023-03-25T07:48:18;13.10;99.90
19000;DHT22;9633;50.980;13.850;2023-03-25T07:49:53;12.70;99.90
19000;DHT22;9633;50.980;13.850;2023-03-25T07:51:26;12.70;99.90
19000;DHT22;9633;50.980;13.850;2023-03-25T07:53:00;12.50;99.90
19000;DHT22;9633;50.980;13.850;2023-03-25T07:54:34;12.40;99.90
19000;DHT22;9633;50.980;13.850;2023-03-25T07:56:09;12.30;99.90
19000;DHT22;9633;50.980;13.850;2023-03-25T07:57:43;12.20;99.90
19000;DHT22;9633;50.980;13.850;2023-03-25T07:59:16;12.00;99.90
19000;DHT22;9633;50.980;13.850;2023-03-25T08:00:49;11.90;99.90
19000;DHT22;9633;50.980;13.850;2023-03-25T08:02:22;11.80;99.90
19000;DHT22;9633;50.980;13.850;2023-03-25T08:03:56;11.80;99.90
19000;DHT22;9633;50.980;13.850;2023-03-25T08:05:29;11.90;99.90
19000;DHT22;9633;50.980;13.850;2023-03-25T08:07:02;12.10;99.90
19000;DHT22;9633;50.980;13.850;2023-03-25T08:08:35;12.10;99.90
19000;DHT22;9633;50.980;13.850;2023-03-25T08:10:09;12.20;99.90
19000;DHT22;9633;50.980;13.850;2023-03-25T08:11:48;12.30;99.90
19000;DHT22;9633;50.980;13.850;2023-03-25T08:13:22;12.30;99.90
19000;DHT22;9633;50.980;13.850;2023-03-25T08:14:54;12.30;99.90
19000;DHT22;9633;50.980;13.850;2023-03-25T08:16:27;12.30;99.90
19000;DHT22;9633;50.980;13.850;2023-03-25T08:18:00;12.10;99.90
19000;DHT22;9633;50.980;13.850;2023-03-25T08:19:36;12.00;99.90
19000;DHT22;9633;50.980;13.850;2023-03-25T08:21:09;11.70;99.90
19000;DHT22;9633;50.980;13.850;2023-03-25T08:22:43;11.70;99.90
19000;DHT22;9633;50.980;13.850;2023-03-25T08:24:16;11.60;99.90
19000;DHT22;9633;50.980;13.850;2023-03-25T08:25:50;11.80;99.90
19000;DHT22;9633;50.980;13.850;2023-03-25T08:27:26;11.70;99.90
19000;DHT22;9633;50.980;13.850;2023-03-25T08:28:59;11.60;99.90
19000;DHT22;9633;50.980;13.850;2023-03-25T08:30:34;11.70;99.90
19000;DHT22;9633;50.980;13.850;2023-03-25T08:32:10;12.00;99.90
19000;DHT22;9633;50.980;13.850;2023-03-25T08:33:43;12.00;99.90
19000;DHT22;9633;50.980;13.850;2023-03-25T08:35:16;11.90;99.90
19000;DHT22;9633;50.980;13.850;2023-03-25T08:36:50;12.00;99.90
19000;DHT22;9633;50.980;13.850;2023-03-25T08:38:23;11.90;99.90
19000;DHT22;9633;50.980;13.850;2023-03-25T08:40:06;11.90;99.90
19000;DHT22;9633;50.980;13.850;2023-03-25T08:41:40;11.80;99.90
19000;DHT22;9633;50.980;13.850;2023-03-25T08:43:14;11.70;99.90
19000;DHT22;9633;50.980;13.850;2023-03-25T08:44:47;11.40;99.90
19000;DHT22;9633;50.980;13.850;2023-03-25T08:46:21;10.90;99.90
19000;DHT22;9633;50.980;13.850;2023-03-25T08:47:54;10.60;99.90
19000;DHT22;9633;50.980;13.850;2023-03-25T08:49:27;10.40;99.90
19000;DHT22;9633;50.980;13.850;2023-03-25T08:51:00;10.30;99.90
19000;DHT22;9633;50.980;13.850;2023-03-25T08:52:33;10.20;99.90
19000;DHT22;9633;50.980;13.850;2023-03-25T08:54:06;10.20;99.90
19000;DHT22;9633;50.980;13.850;2023-03-25T08:55:39;10.20;99.90
19000;DHT22;9633;50.980;13.850;2023-03-25T08:57:13;10.20;99.90
19000;DHT22;9633;50.980;13.850;2023-03-25T08:58:47;10.30;99.90
19000;DHT22;9633;50.980;13.850;2023-03-25T09:00:20;10.30;99.90
19000;DHT22;9633;50.980;13.850;2023-03-25T09:01:56;10.10;99.90
19000;DHT22;9633;50.980;13.850;2023-03-25T09:03:32;10.10;99.90
19000;DHT22;9633;50.980;13.850;2023-03-25T09:05:06;10.00;99.90
19000;DHT22;9633;50.980;13.850;2023-03-25T09:06:39;10.00;99.90
19000;DHT22;9633;50.980;13.850;2023-03-25T09:08:19;10.00;99.90
19000;DHT22;9633;50.980;13.850;2023-03-25T09:09:52;10.10;99.90
19000;DHT22;9633;50.980;13.850;2023-03-25T09:11:25;10.10;99.90
19000;DHT22;9633;50.980;13.850;2023-03-25T09:13:07;10.20;99.90
19000;DHT22;9633;50.980;13.850;2023-03-25T09:14:42;10.30;99.90
19000;DHT22;9633;50.980;13.850;2023-03-25T09:16:16;10.10;99.90
19000;DHT22;9633;50.980;13.850;2023-03-25T09:17:49;10.10;99.90
19000;DHT22;9633;50.980;13.850;2023-03-25T09:19:22;10.10;99.90
19000;DHT22;9633;50.980;13.850;2023-03-25T09:20:57;10.10;99.90
19000;DHT22;9633;50.980;13.850;2023-03-25T09:22:30;10.20;99.90
19000;DHT22;9633;50.980;13.850;2023-03-25T09:24:04;10.20;99.90
19000;DHT22;9633;50.980;13.850;2023-03-25T09:25:37;10.10;99.90
19000;DHT22;9633;50.980;13.850;2023-03-25T09:27:10;10.20;99.90
19000;DHT22;9633;50.980;13.850;2023-03-25T09:28:43;10.10;99.90
19000;DHT22;9633;50.980;13.850;2023-03-25T09:30:18;10.10;99.90
19000;DHT22;9633;50.980;13.850;2023-03-25T09:31:51;10.20;99.90
19000;DHT22;9633;50.980;13.850;2023-03-25T09:33:24;10.20;99.90
19000;DHT22;9633;50.980;13.850;2023-03-25T09:34:58;10.00;99.90
19000;DHT22;9633;50.980;13.850;2023-03-25T09:36:31;9.90;99.90
19000;DHT22;9633;50.980;13.850;2023-03-25T09:38:04;9.70;99.90
19000;DHT22;9633;50.980;13.850;2023-03-25T09:39:38;9.70;99.90
19000;DHT22;9633;50.980;13.850;2023-03-25T09:41:30;9.50;99.90
19000;DHT22;9633;50.980;13.850;2023-03-25T09:43:16;9.30;99.90
19000;DHT22;9633;50.980;13.850;2023-03-25T09:44:56;9.20;99.90
19000;DHT22;9633;50.980;13.850;2023-03-25T09:46:43;9.30;99.90
19000;DHT22;9633;50.980;13.850;2023-03-25T09:48:25;9.30;99.90
19000;DHT22;9633;50.980;13.850;2023-03-25T09:50:03;9.30;99.90
19000;DHT22;9633;50.980;13.850;2023-03-25T09:51:38;9.40;99.90
19000;DHT22;9633;50.980;13.850;2023-03-25T09:53:19;9.40;99.90
19000;DHT22;9633;50.980;13.850;2023-03-25T09:54:59;9.60;99.90
19000;DHT22;9633;50.980;13.850;2023-03-25T09:56:36;9.70;99.90
19000;DHT22;9633;50.980;13.850;2023-03-25T09:58:28;9.80;99.90
19000;DHT22;9633;50.980;13.850;2023-03-25T10:00:09;10.00;99.90
19000;DHT22;9633;50.980;13.850;2023-03-25T10:01:54;10.20;99.90
19000;DHT22;9633;50.980;13.850;2023-03-25T10:03:34;10.40;99.90
19000;DHT22;9633;50.980;13.850;2023-03-25T10:05:19;10.80;99.90
19000;DHT22;9633;50.980;13.850;2023-03-25T10:07:02;11.10;99.90
19000;DHT22;9633;50.980;13.850;2023-03-25T10:08:48;11.30;99.90
19000;DHT22;9633;50.980;13.850;2023-03-25T10:10:27;11.60;99.90